createdAt,value
2022-11-20T00:01:25.879Z,6.85
2022-11-20T00:03:54.509Z,6.20
2022-11-20T00:06:22.611Z,5.85
2022-11-20T00:08:49.605Z,6.30
2022-11-20T00:11:18.876Z,5.10
2022-11-20T00:13:47.156Z,6.38
2022-11-20T00:16:16.527Z,3.70
2022-11-20T00:18:43.412Z,6.57
2022-11-20T00:21:24.656Z,7.03
2022-11-20T00:23:54.872Z,5.90
2022-11-20T00:26:23.702Z,6.70
2022-11-20T00:28:56.477Z,5.68
2022-11-20T00:31:23.472Z,4.95
2022-11-20T00:33:50.675Z,6.97
2022-11-20T00:36:20.230Z,5.13
2022-11-20T00:38:47.720Z,8.43
2022-11-20T00:41:16.585Z,9.05
2022-11-20T00:43:43.492Z,4.07
2022-11-20T00:46:16.541Z,5.07
2022-11-20T00:48:44.134Z,5.05
2022-11-20T00:51:13.449Z,6.45
2022-11-20T00:53:40.170Z,7.67
2022-11-20T00:56:08.988Z,9.13
2022-11-20T00:58:37.901Z,5.57
2022-11-20T01:01:10.764Z,10.48
2022-11-20T01:03:41.129Z,4.43
2022-11-20T01:08:36.941Z,4.57
2022-11-20T01:11:10.272Z,8.02
2022-11-20T01:13:38.185Z,6.10
2022-11-20T01:16:19.421Z,7.93
2022-11-20T01:18:49.105Z,5.32
2022-11-20T01:21:21.410Z,7.80
2022-11-20T01:23:49.195Z,8.52
2022-11-20T01:26:27.680Z,9.10
2022-11-20T01:28:55.458Z,5.15
2022-11-20T01:31:33.857Z,6.22
2022-11-20T01:34:03.382Z,8.73
2022-11-20T01:36:32.269Z,6.75
2022-11-20T01:39:05.047Z,5.40
2022-11-20T01:41:51.689Z,5.32
2022-11-20T01:44:21.477Z,8.13
2022-11-20T01:47:01.859Z,8.35
2022-11-20T01:52:23.830Z,7.10
2022-11-20T01:55:00.085Z,5.13
2022-11-20T01:57:28.923Z,5.43
2022-11-20T02:00:01.236Z,8.10
2022-11-20T02:02:28.294Z,4.85
2022-11-20T02:04:59.792Z,7.05
2022-11-20T02:07:26.544Z,5.88
2022-11-20T02:09:58.439Z,5.90
2022-11-20T02:12:44.180Z,6.07
2022-11-20T02:15:11.006Z,11.50
2022-11-20T02:17:37.978Z,7.38
2022-11-20T02:20:05.549Z,8.13
2022-11-20T02:22:42.815Z,7.55
2022-11-20T02:25:11.110Z,7.03
2022-11-20T02:27:37.802Z,6.22
2022-11-20T02:30:08.541Z,8.48
2022-11-20T02:32:37.309Z,6.45
2022-11-20T02:35:31.051Z,5.43
2022-11-20T02:38:01.958Z,5.72
2022-11-20T02:40:29.412Z,5.85
2022-11-20T02:42:57.099Z,9.25
2022-11-20T02:45:25.162Z,7.93
2022-11-20T02:47:52.372Z,7.93
2022-11-20T02:50:19.492Z,9.70
2022-11-20T02:52:46.534Z,12.88
2022-11-20T02:55:13.187Z,9.40
2022-11-20T02:57:39.891Z,10.57
2022-11-20T03:00:07.852Z,8.30
2022-11-20T03:02:34.936Z,6.50
2022-11-20T03:05:01.760Z,5.88
2022-11-20T03:07:28.464Z,8.10
2022-11-20T03:09:55.255Z,7.88
2022-11-20T03:12:21.892Z,9.07
2022-11-20T03:14:52.793Z,12.30
2022-11-20T03:17:19.826Z,8.07
2022-11-20T03:19:46.456Z,10.90
2022-11-20T03:22:13.127Z,8.98
2022-11-20T03:24:39.776Z,9.35
2022-11-20T03:27:06.438Z,15.52
2022-11-20T03:29:33.395Z,5.88
2022-11-20T03:32:00.049Z,8.57
2022-11-20T03:34:26.692Z,7.47
2022-11-20T03:36:53.343Z,7.07
2022-11-20T03:39:20.267Z,8.73
2022-11-20T03:41:47.321Z,8.13
2022-11-20T03:44:14.019Z,6.35
2022-11-20T03:46:40.693Z,7.05
2022-11-20T03:49:08.045Z,6.60
2022-11-20T03:51:36.508Z,4.47
2022-11-20T03:54:06.658Z,7.50
2022-11-20T03:56:35.858Z,5.80
2022-11-20T03:59:03.086Z,5.40
2022-11-20T04:01:32.980Z,4.85
2022-11-20T04:04:00.182Z,4.75
2022-11-20T04:06:34.971Z,5.68
2022-11-20T04:09:01.796Z,5.63
2022-11-20T04:11:30.616Z,6.28
2022-11-20T04:13:59.768Z,5.85
2022-11-20T04:16:27.556Z,8.18
2022-11-20T04:18:58.917Z,5.43
2022-11-20T04:21:26.715Z,4.70
2022-11-20T04:23:54.375Z,7.85
2022-11-20T04:26:22.855Z,5.43
2022-11-20T04:28:49.534Z,5.63
2022-11-20T04:31:19.635Z,5.47
2022-11-20T04:33:46.525Z,7.30
2022-11-20T04:36:24.838Z,6.43
2022-11-20T04:38:57.122Z,6.13
2022-11-20T04:41:26.455Z,4.80
2022-11-20T04:44:00.774Z,5.97
2022-11-20T04:46:28.756Z,6.32
2022-11-20T04:48:55.383Z,4.75
2022-11-20T04:51:22.472Z,8.00
2022-11-20T04:53:49.153Z,6.15
2022-11-20T04:56:16.091Z,5.55
2022-11-20T04:58:42.933Z,6.50
2022-11-20T05:01:18.214Z,4.47
2022-11-20T05:03:45.925Z,4.25
2022-11-20T05:06:14.575Z,7.05
2022-11-20T05:08:41.533Z,5.65
2022-11-20T05:11:11.248Z,3.40
2022-11-20T05:13:38.601Z,5.68
2022-11-20T05:16:11.363Z,4.95
2022-11-20T05:18:38.932Z,5.85
2022-11-20T05:21:06.456Z,4.18
2022-11-20T05:23:33.481Z,7.55
2022-11-20T05:26:01.015Z,3.03
2022-11-20T05:28:29.619Z,3.28
2022-11-20T05:30:56.503Z,3.92
2022-11-20T05:33:23.409Z,4.10
2022-11-20T05:35:50.087Z,3.22
2022-11-20T05:38:16.928Z,2.70
2022-11-20T05:40:43.737Z,3.15
2022-11-20T05:43:10.418Z,3.35
2022-11-20T05:45:37.115Z,3.30
2022-11-20T05:48:04.017Z,3.13
2022-11-20T05:50:31.333Z,2.35
2022-11-20T05:53:01.252Z,5.10
2022-11-20T05:55:28.494Z,2.53
2022-11-20T05:57:55.949Z,5.63
2022-11-20T06:00:23.167Z,3.47
2022-11-20T06:02:49.885Z,3.53
2022-11-20T06:05:16.922Z,2.65
2022-11-20T06:07:43.799Z,2.35
2022-11-20T06:10:11.019Z,2.20
2022-11-20T06:12:37.675Z,3.65
2022-11-20T06:15:05.694Z,2.42
2022-11-20T06:17:32.356Z,3.13
2022-11-20T06:19:59.145Z,4.00
2022-11-20T06:22:25.760Z,3.28
2022-11-20T06:24:52.380Z,2.40
2022-11-20T06:27:19.015Z,1.95
2022-11-20T06:29:45.696Z,2.10
2022-11-20T06:32:12.304Z,2.22
2022-11-20T06:34:38.971Z,4.78
2022-11-20T06:37:06.371Z,1.63
2022-11-20T06:39:33.006Z,1.75
2022-11-20T06:41:59.658Z,3.55
2022-11-20T06:44:26.936Z,2.58
2022-11-20T06:46:53.523Z,2.75
2022-11-20T06:49:20.905Z,3.13
2022-11-20T06:51:47.824Z,2.45
2022-11-20T06:54:14.432Z,2.78
2022-11-20T06:56:41.032Z,1.75
2022-11-20T06:59:08.763Z,2.25
2022-11-20T07:01:36.000Z,1.85
2022-11-20T07:04:04.116Z,5.32
2022-11-20T07:06:31.017Z,3.67
2022-11-20T07:08:58.006Z,3.40
2022-11-20T07:11:24.861Z,2.10
2022-11-20T07:13:51.676Z,6.38
2022-11-20T07:16:18.395Z,2.25
2022-11-20T07:18:50.119Z,3.63
2022-11-20T07:21:17.611Z,2.13
2022-11-20T07:23:44.256Z,6.00
2022-11-20T07:26:11.835Z,1.55
2022-11-20T07:28:39.012Z,4.05
2022-11-20T07:31:07.723Z,2.22
2022-11-20T07:33:35.240Z,2.22
2022-11-20T07:36:02.376Z,3.70
2022-11-20T07:38:29.090Z,5.40
2022-11-20T07:40:57.603Z,10.98
2022-11-20T07:43:26.135Z,6.60
2022-11-20T07:45:52.845Z,2.60
2022-11-20T07:48:19.582Z,2.58
2022-11-20T07:50:46.652Z,1.88
2022-11-20T07:53:14.773Z,2.10
2022-11-20T07:55:41.413Z,3.88
2022-11-20T07:58:08.042Z,3.00
2022-11-20T08:00:34.872Z,1.45
2022-11-20T08:03:05.324Z,4.55
2022-11-20T08:05:32.055Z,3.25
2022-11-20T08:07:58.647Z,2.85
2022-11-20T08:10:25.851Z,3.30
2022-11-20T08:13:12.384Z,1.48
2022-11-20T08:15:41.502Z,2.90
2022-11-20T08:20:58.387Z,3.83
2022-11-20T08:23:25.208Z,5.55
2022-11-20T08:25:52.269Z,2.00
2022-11-20T08:28:21.765Z,2.45
2022-11-20T08:30:49.663Z,1.88
2022-11-20T08:33:16.340Z,2.33
2022-11-20T08:35:43.894Z,3.22
2022-11-20T08:38:10.684Z,4.53
2022-11-20T08:40:37.359Z,3.03
2022-11-20T08:43:04.368Z,2.72
2022-11-20T08:45:34.021Z,5.10
2022-11-20T08:48:02.060Z,2.42
2022-11-20T08:50:28.768Z,3.53
2022-11-20T08:52:55.379Z,3.83
2022-11-20T08:55:21.989Z,3.83
2022-11-20T08:57:51.069Z,3.13
2022-11-20T09:00:18.396Z,2.33
2022-11-20T09:02:45.002Z,3.33
2022-11-20T09:05:11.637Z,6.47
2022-11-20T09:07:38.411Z,4.15
2022-11-20T09:12:53.592Z,2.88
2022-11-20T09:15:20.796Z,3.90
2022-11-20T09:17:54.854Z,3.67
2022-11-20T09:20:22.036Z,4.38
2022-11-20T09:22:49.458Z,3.33
2022-11-20T09:25:16.231Z,2.92
2022-11-20T09:27:44.656Z,3.17
2022-11-20T09:30:11.822Z,3.38
2022-11-20T09:32:40.304Z,4.43
2022-11-20T09:35:07.448Z,7.03
2022-11-20T09:37:34.084Z,8.48
2022-11-20T09:40:00.912Z,5.90
2022-11-20T09:42:45.216Z,6.78
2022-11-20T09:45:17.281Z,6.80
2022-11-20T09:47:55.947Z,4.00
2022-11-20T09:50:48.724Z,4.40
2022-11-20T09:53:36.419Z,5.25
2022-11-20T09:56:05.706Z,5.15
2022-11-20T09:58:45.971Z,5.97
2022-11-20T10:03:56.345Z,9.10
2022-11-20T10:06:41.514Z,6.60
2022-11-20T10:09:11.145Z,5.47
2022-11-20T10:11:59.961Z,6.70
2022-11-20T10:14:42.950Z,6.70
2022-11-20T10:17:59.776Z,4.90
2022-11-20T10:20:49.008Z,5.00
2022-11-20T10:23:24.324Z,5.72
2022-11-20T10:26:02.893Z,5.65
2022-11-20T10:28:57.082Z,4.57
2022-11-20T10:31:36.155Z,8.45
2022-11-20T10:34:13.090Z,4.88
2022-11-20T10:36:47.263Z,4.60
2022-11-20T10:39:23.818Z,4.53
2022-11-20T10:41:54.053Z,3.45
2022-11-20T10:44:42.879Z,5.35
2022-11-20T10:47:17.961Z,7.53
2022-11-20T10:49:54.022Z,5.10
2022-11-20T10:52:49.040Z,5.93
2022-11-20T10:55:50.137Z,5.38
2022-11-20T10:58:27.460Z,4.60
2022-11-20T11:01:05.080Z,4.43
2022-11-20T11:03:33.557Z,3.47
2022-11-20T11:06:17.044Z,2.30
2022-11-20T11:08:44.725Z,3.28
2022-11-20T11:11:33.184Z,4.05
2022-11-20T11:14:11.645Z,2.90
2022-11-20T11:16:51.620Z,6.13
2022-11-20T11:19:18.604Z,2.42
2022-11-20T11:21:55.158Z,4.78
2022-11-20T11:24:41.577Z,3.75
2022-11-20T11:27:17.690Z,3.85
2022-11-20T11:29:45.389Z,5.95
2022-11-20T11:32:21.560Z,3.75
2022-11-20T11:35:19.720Z,4.22
2022-11-20T11:37:48.048Z,5.03
2022-11-20T11:40:23.751Z,9.13
2022-11-20T11:42:55.860Z,6.00
2022-11-20T11:45:23.118Z,5.43
2022-11-20T11:47:52.531Z,6.03
2022-11-20T11:50:23.048Z,7.50
2022-11-20T11:53:10.116Z,4.20
2022-11-20T11:55:42.483Z,4.00
2022-11-20T11:58:43.047Z,3.75
2022-11-20T12:01:35.120Z,2.75
2022-11-20T12:04:24.742Z,6.03
2022-11-20T12:07:39.009Z,5.13
2022-11-20T12:09:59.490Z,3.50
2022-11-20T12:12:31.075Z,7.10
2022-11-20T12:14:59.419Z,2.53
2022-11-20T12:17:26.129Z,2.90
2022-11-20T12:19:52.850Z,3.65
2022-11-20T12:22:27.867Z,2.38
2022-11-20T12:25:12.737Z,2.05
2022-11-20T12:27:53.262Z,2.15
2022-11-20T12:30:21.421Z,2.22
2022-11-20T12:33:19.763Z,1.95
2022-11-20T12:35:59.264Z,1.55
2022-11-20T12:39:06.529Z,2.58
2022-11-20T12:42:22.789Z,2.67
2022-11-20T12:45:12.442Z,2.92
2022-11-20T12:48:10.497Z,1.90
2022-11-20T12:51:13.845Z,1.63
2022-11-20T12:54:00.283Z,1.60
2022-11-20T12:57:03.765Z,2.63
2022-11-20T13:00:14.797Z,1.52
2022-11-20T13:03:02.289Z,2.80
2022-11-20T13:05:40.786Z,3.88
2022-11-20T13:08:19.576Z,4.47
2022-11-20T13:11:04.476Z,3.47
2022-11-20T13:13:56.084Z,2.25
2022-11-20T13:16:39.021Z,2.30
2022-11-20T13:19:06.675Z,1.50
2022-11-20T13:21:41.878Z,2.63
2022-11-20T13:24:25.862Z,8.57
2022-11-20T13:27:03.053Z,6.60
2022-11-20T13:29:30.828Z,5.63
2022-11-20T13:32:19.633Z,2.97
2022-11-20T13:35:01.510Z,6.53
2022-11-20T13:37:36.189Z,3.50
2022-11-20T13:40:08.886Z,4.20
2022-11-20T13:42:45.634Z,4.88
2022-11-20T13:45:27.858Z,4.38
2022-11-20T13:47:56.295Z,1.48
2022-11-20T13:50:41.356Z,6.45
2022-11-20T13:53:58.435Z,1.90
2022-11-20T13:56:30.371Z,4.97
2022-11-20T13:59:33.154Z,2.90
2022-11-20T14:02:01.926Z,2.40
2022-11-20T14:04:34.672Z,1.40
2022-11-20T14:07:01.973Z,2.83
2022-11-20T14:09:35.156Z,4.00
2022-11-20T14:12:04.858Z,3.80
2022-11-20T14:14:34.100Z,2.97
2022-11-20T14:17:32.323Z,3.92
2022-11-20T14:20:06.169Z,2.42
2022-11-20T14:22:32.974Z,4.53
2022-11-20T14:25:13.813Z,6.25
2022-11-20T14:27:42.603Z,6.05
2022-11-20T14:30:15.528Z,4.72
2022-11-20T14:32:43.924Z,5.60
2022-11-20T14:35:21.483Z,5.22
2022-11-20T14:37:48.705Z,4.70
2022-11-20T14:40:37.984Z,3.40
2022-11-20T14:43:20.084Z,5.85
2022-11-20T14:46:08.697Z,3.03
2022-11-20T14:48:56.015Z,2.28
2022-11-20T14:51:42.500Z,2.78
2022-11-20T14:54:19.962Z,7.57
2022-11-20T14:57:03.337Z,4.93
2022-11-20T14:59:34.795Z,3.60
2022-11-20T15:02:12.983Z,4.38
2022-11-20T15:04:51.039Z,2.60
2022-11-20T15:07:46.850Z,1.25
2022-11-20T15:10:25.635Z,2.13
2022-11-20T15:12:58.524Z,3.33
2022-11-20T15:15:43.887Z,6.30
2022-11-20T15:18:19.334Z,3.67
2022-11-20T15:20:46.583Z,3.70
2022-11-20T15:23:15.332Z,3.20
2022-11-20T15:25:42.736Z,2.95
2022-11-20T15:28:22.021Z,2.22
2022-11-20T15:30:50.282Z,2.95
2022-11-20T15:33:18.366Z,3.90
2022-11-20T15:35:45.648Z,0.98
2022-11-20T15:38:12.322Z,2.53
2022-11-20T15:40:38.986Z,2.35
2022-11-20T15:43:12.570Z,1.55
2022-11-20T15:46:01.656Z,2.53
2022-11-20T15:48:35.120Z,2.65
2022-11-20T15:51:07.725Z,3.13
2022-11-20T15:53:34.509Z,2.63
2022-11-20T15:56:01.417Z,4.95
2022-11-20T15:58:28.189Z,5.93
2022-11-20T16:00:54.961Z,10.30
2022-11-20T16:03:22.307Z,7.95
2022-11-20T16:05:49.249Z,6.60
2022-11-20T16:08:16.019Z,3.47
2022-11-20T16:10:43.090Z,4.63
2022-11-20T16:13:33.427Z,4.22
2022-11-20T16:18:28.855Z,7.07
2022-11-20T16:20:56.087Z,6.13
2022-11-20T16:23:23.206Z,4.32
2022-11-20T16:25:51.468Z,3.75
2022-11-20T16:28:19.517Z,5.60
2022-11-20T16:30:47.012Z,2.70
2022-11-20T16:33:16.322Z,2.10
2022-11-20T16:35:43.046Z,2.65
2022-11-20T16:38:10.287Z,4.00
2022-11-20T16:40:36.972Z,3.38
2022-11-20T16:43:12.041Z,5.97
2022-11-20T16:45:43.657Z,3.90
2022-11-20T16:48:17.365Z,4.45
2022-11-20T16:50:52.066Z,2.17
2022-11-20T16:53:20.516Z,1.63
2022-11-20T16:55:47.567Z,1.33
2022-11-20T16:58:15.179Z,2.50
2022-11-20T17:00:46.873Z,2.10
2022-11-20T17:03:17.945Z,2.25
2022-11-20T17:05:44.610Z,1.92
2022-11-20T17:08:11.295Z,1.58
2022-11-20T17:10:38.009Z,4.53
2022-11-20T17:13:04.651Z,2.75
2022-11-20T17:15:31.662Z,4.07
2022-11-20T17:17:58.270Z,1.33
2022-11-20T17:20:25.029Z,2.40
2022-11-20T17:22:51.695Z,2.17
2022-11-20T17:25:18.340Z,1.90
2022-11-20T17:27:44.958Z,3.13
2022-11-20T17:30:11.816Z,2.00
2022-11-20T17:32:39.529Z,4.30
2022-11-20T17:35:06.517Z,3.10
2022-11-20T17:37:33.163Z,5.30
2022-11-20T17:39:59.776Z,2.97
2022-11-20T17:42:29.949Z,3.13
2022-11-20T17:47:25.881Z,2.78
2022-11-20T17:49:53.516Z,2.63
2022-11-20T17:52:20.353Z,2.20
2022-11-20T17:54:47.007Z,3.92
2022-11-20T17:57:32.204Z,2.55
2022-11-20T17:59:58.852Z,5.88
2022-11-20T18:02:25.491Z,3.53
2022-11-20T18:04:52.135Z,2.20
2022-11-20T18:07:18.816Z,1.02
2022-11-20T18:09:45.471Z,1.58
2022-11-20T18:12:12.156Z,1.67
2022-11-20T18:14:38.871Z,4.35
2022-11-20T18:17:11.626Z,1.63
2022-11-20T18:19:55.642Z,3.72
2022-11-20T18:22:30.940Z,3.00
2022-11-20T18:24:57.566Z,2.33
2022-11-20T18:27:24.254Z,2.78
2022-11-20T18:29:52.182Z,0.93
2022-11-20T18:32:20.407Z,3.20
2022-11-20T18:34:47.182Z,1.20
2022-11-20T18:37:15.344Z,1.55
2022-11-20T18:39:42.657Z,3.33
2022-11-20T18:42:32.554Z,2.38
2022-11-20T18:45:00.286Z,1.30
2022-11-20T18:47:33.998Z,1.38
2022-11-20T18:50:01.764Z,1.88
2022-11-20T18:52:34.002Z,3.17
2022-11-20T18:55:02.386Z,2.03
2022-11-20T18:57:29.874Z,4.47
2022-11-20T19:00:03.517Z,4.40
2022-11-20T19:02:40.889Z,2.90
2022-11-20T19:05:09.933Z,5.00
2022-11-20T19:07:36.617Z,3.78
2022-11-20T19:10:04.544Z,1.73
2022-11-20T19:12:31.772Z,3.88
2022-11-20T19:14:58.499Z,4.50
2022-11-20T19:17:25.311Z,1.77
2022-11-20T19:19:54.734Z,2.47
2022-11-20T19:22:21.705Z,2.87
2022-11-20T19:24:48.646Z,2.30
2022-11-20T19:27:15.382Z,4.10
2022-11-20T19:29:42.037Z,2.50
2022-11-20T19:32:08.703Z,5.53
2022-11-20T19:34:35.324Z,1.30
2022-11-20T19:37:02.275Z,2.22
2022-11-20T19:39:29.010Z,1.23
2022-11-20T19:41:55.643Z,2.63
2022-11-20T19:44:22.414Z,1.52
2022-11-20T19:46:50.839Z,1.98
2022-11-20T19:49:17.542Z,1.98
2022-11-20T19:51:47.228Z,1.05
2022-11-20T19:54:14.494Z,0.65
2022-11-20T19:56:41.602Z,1.60
2022-11-20T19:59:08.362Z,1.15
2022-11-20T20:01:35.404Z,0.82
2022-11-20T20:04:04.988Z,0.88
2022-11-20T20:06:33.691Z,1.48
2022-11-20T20:09:06.512Z,0.93
2022-11-20T20:11:34.538Z,1.45
2022-11-20T20:14:06.761Z,0.68
2022-11-20T20:16:34.284Z,0.85
2022-11-20T20:19:02.761Z,2.50
2022-11-20T20:21:32.691Z,0.73
2022-11-20T20:23:59.892Z,0.70
2022-11-20T20:26:28.539Z,2.83
2022-11-20T20:28:55.712Z,1.92
2022-11-20T20:31:25.513Z,0.63
2022-11-20T20:33:52.500Z,1.15
2022-11-20T20:36:20.871Z,1.20
2022-11-20T20:38:48.180Z,2.00
2022-11-20T20:41:18.527Z,1.20
2022-11-20T20:44:03.976Z,1.27
2022-11-20T20:46:30.962Z,1.15
2022-11-20T20:48:57.799Z,0.85
2022-11-20T20:51:24.464Z,1.80
2022-11-20T20:53:51.401Z,0.55
2022-11-20T20:56:18.082Z,0.60
2022-11-20T20:58:44.779Z,2.65
2022-11-20T21:01:14.575Z,1.17
